createdAt,value
2023-02-19T00:01:54.179Z,4.98
2023-02-19T00:04:23.611Z,5.01
2023-02-19T00:06:52.246Z,4.88
2023-02-19T00:09:22.084Z,4.92
2023-02-19T00:11:50.490Z,4.83
2023-02-19T00:14:21.834Z,4.89
2023-02-19T00:16:50.487Z,4.95
2023-02-19T00:19:21.307Z,4.88
2023-02-19T00:21:52.518Z,4.90
2023-02-19T00:24:22.890Z,4.87
2023-02-19T00:26:50.997Z,4.89
2023-02-19T00:29:21.727Z,4.86
2023-02-19T00:31:49.989Z,4.81
2023-02-19T00:34:18.118Z,4.83
2023-02-19T00:36:46.222Z,4.86
2023-02-19T00:39:18.431Z,4.85
2023-02-19T00:41:48.269Z,4.81
2023-02-19T00:44:16.785Z,4.83
2023-02-19T00:46:47.955Z,4.86
2023-02-19T00:49:19.960Z,4.97
2023-02-19T00:51:48.373Z,4.90
2023-02-19T00:54:17.576Z,4.82
2023-02-19T00:56:47.223Z,4.78
2023-02-19T00:59:15.674Z,4.86
2023-02-19T01:01:45.400Z,4.82
2023-02-19T01:04:14.860Z,4.85
2023-02-19T01:06:42.995Z,4.79
2023-02-19T01:09:11.021Z,4.74
2023-02-19T01:11:39.010Z,4.75
2023-02-19T01:14:08.352Z,4.78
2023-02-19T01:16:36.388Z,4.84
2023-02-19T01:19:04.838Z,4.86
2023-02-19T01:21:32.965Z,4.83
2023-02-19T01:24:01.344Z,4.83
2023-02-19T01:26:32.540Z,4.84
2023-02-19T01:29:01.255Z,4.88
2023-02-19T01:31:31.569Z,4.84
2023-02-19T01:34:03.433Z,4.97
2023-02-19T01:36:35.518Z,4.99
2023-02-19T01:39:06.637Z,4.88
2023-02-19T01:41:40.083Z,4.80
2023-02-19T01:44:47.917Z,4.82
2023-02-19T01:47:20.977Z,4.69
2023-02-19T01:49:55.889Z,4.77
2023-02-19T01:52:30.633Z,4.74
2023-02-19T01:55:02.029Z,4.74
2023-02-19T01:57:34.937Z,4.77
2023-02-19T02:00:08.896Z,4.72
2023-02-19T02:02:41.386Z,4.71
2023-02-19T02:05:19.286Z,4.59
2023-02-19T02:08:04.835Z,4.42
2023-02-19T02:10:33.030Z,4.39
2023-02-19T02:13:00.967Z,4.45
2023-02-19T02:15:40.896Z,4.41
2023-02-19T02:18:24.135Z,4.50
2023-02-19T02:21:18.391Z,4.53
2023-02-19T02:24:12.145Z,4.48
2023-02-19T02:27:11.348Z,4.49
2023-02-19T02:30:30.053Z,4.60
2023-02-19T02:33:13.960Z,4.47
2023-02-19T02:35:48.914Z,4.46
2023-02-19T02:38:21.345Z,4.48
2023-02-19T02:40:53.195Z,4.53
2023-02-19T02:43:21.156Z,4.48
2023-02-19T02:45:50.866Z,4.42
2023-02-19T02:48:31.206Z,4.40
2023-02-19T02:51:06.589Z,4.34
2023-02-19T02:54:00.074Z,4.38
2023-02-19T02:56:30.013Z,4.29
2023-02-19T02:59:02.284Z,4.31
2023-02-19T03:01:56.713Z,4.32
2023-02-19T03:04:34.004Z,4.30
2023-02-19T03:07:08.915Z,4.30
2023-02-19T03:09:43.272Z,4.28
2023-02-19T03:12:36.643Z,4.27
2023-02-19T03:15:30.221Z,4.34
2023-02-19T03:18:22.313Z,4.13
2023-02-19T03:20:56.470Z,4.04
2023-02-19T03:23:48.680Z,4.10
2023-02-19T03:26:19.535Z,4.14
2023-02-19T03:29:09.940Z,4.11
2023-02-19T03:31:43.058Z,4.01
2023-02-19T03:34:20.964Z,4.09
2023-02-19T03:37:01.550Z,4.06
2023-02-19T03:39:30.492Z,3.93
2023-02-19T03:42:08.734Z,3.89
2023-02-19T03:44:46.088Z,3.79
2023-02-19T03:47:24.377Z,3.67
2023-02-19T03:50:01.375Z,3.71
2023-02-19T03:52:42.736Z,3.72
2023-02-19T03:55:18.120Z,3.63
2023-02-19T03:57:55.074Z,3.53
2023-02-19T04:00:31.120Z,3.60
2023-02-19T04:03:09.562Z,3.45
2023-02-19T04:05:46.883Z,3.50
2023-02-19T04:08:20.494Z,3.52
2023-02-19T04:10:51.003Z,3.42
2023-02-19T04:13:27.474Z,3.41
2023-02-19T04:16:03.765Z,3.41
2023-02-19T04:18:37.329Z,3.39
2023-02-19T04:21:09.775Z,3.39
2023-02-19T04:23:44.861Z,3.30
2023-02-19T04:26:16.333Z,3.18
2023-02-19T04:28:44.970Z,3.19
2023-02-19T04:31:13.706Z,3.16
2023-02-19T04:33:41.860Z,3.06
2023-02-19T04:36:12.899Z,3.04
2023-02-19T04:38:40.865Z,3.14
2023-02-19T04:41:10.445Z,3.21
2023-02-19T04:43:38.629Z,3.20
2023-02-19T04:46:07.042Z,3.09
2023-02-19T04:48:35.058Z,3.08
2023-02-19T04:51:07.545Z,3.13
2023-02-19T04:53:38.063Z,3.01
2023-02-19T04:56:11.331Z,3.00
2023-02-19T04:58:40.043Z,3.01
2023-02-19T05:01:09.612Z,3.05
2023-02-19T05:03:38.545Z,2.89
2023-02-19T05:06:09.812Z,2.83
2023-02-19T05:08:39.783Z,2.77
2023-02-19T05:11:11.310Z,2.85
2023-02-19T05:13:40.652Z,2.83
2023-02-19T05:16:13.799Z,2.80
2023-02-19T05:18:42.986Z,2.85
2023-02-19T05:21:12.970Z,2.78
2023-02-19T05:23:43.011Z,2.75
2023-02-19T05:26:17.088Z,2.75
2023-02-19T05:28:45.424Z,2.69
2023-02-19T05:31:15.119Z,2.75
2023-02-19T05:33:44.254Z,2.71
2023-02-19T05:36:14.897Z,2.69
2023-02-19T05:38:44.309Z,2.75
2023-02-19T05:41:15.130Z,2.83
2023-02-19T05:43:46.449Z,2.77
2023-02-19T05:46:17.816Z,2.77
2023-02-19T05:48:45.760Z,2.76
2023-02-19T05:51:17.182Z,2.88
2023-02-19T05:53:47.013Z,2.76
2023-02-19T05:56:32.064Z,2.78
2023-02-19T05:59:03.822Z,2.83
2023-02-19T06:01:32.186Z,2.79
2023-02-19T06:04:00.171Z,2.69
2023-02-19T06:06:29.849Z,2.70
2023-02-19T06:08:58.938Z,2.59
2023-02-19T06:11:26.981Z,2.49
2023-02-19T06:13:54.890Z,2.54
2023-02-19T06:16:23.269Z,2.52
2023-02-19T06:18:51.537Z,2.44
2023-02-19T06:21:20.302Z,2.51
2023-02-19T06:23:48.682Z,2.39
2023-02-19T06:26:21.083Z,2.39
2023-02-19T06:28:51.796Z,2.38
2023-02-19T06:31:22.098Z,2.39
2023-02-19T06:33:50.938Z,2.41
2023-02-19T06:36:21.922Z,2.29
2023-02-19T06:38:50.041Z,2.40
2023-02-19T06:41:19.974Z,2.36
2023-02-19T06:43:47.979Z,2.43
2023-02-19T06:46:16.209Z,2.44
2023-02-19T06:48:46.394Z,2.45
2023-02-19T06:51:18.577Z,2.46
2023-02-19T06:53:47.522Z,2.52
2023-02-19T06:56:29.458Z,2.59
2023-02-19T06:59:00.618Z,2.49
2023-02-19T07:01:29.647Z,2.51
2023-02-19T07:03:57.665Z,2.61
2023-02-19T07:06:27.721Z,2.59
2023-02-19T07:08:58.406Z,2.56
2023-02-19T07:11:30.998Z,2.57
2023-02-19T07:14:01.480Z,2.59
2023-02-19T07:16:34.390Z,2.56
2023-02-19T07:19:02.908Z,2.64
2023-02-19T07:21:31.349Z,2.61
2023-02-19T07:23:59.344Z,2.62
2023-02-19T07:26:28.649Z,2.66
2023-02-19T07:28:56.636Z,2.63
2023-02-19T07:31:25.511Z,2.60
2023-02-19T07:33:53.875Z,2.59
2023-02-19T07:36:24.549Z,2.66
2023-02-19T07:38:56.269Z,2.57
2023-02-19T07:41:25.344Z,2.61
2023-02-19T07:43:55.592Z,2.59
2023-02-19T07:46:24.796Z,2.67
2023-02-19T07:48:52.739Z,2.61
2023-02-19T07:51:22.154Z,2.67
2023-02-19T07:53:51.348Z,2.68
2023-02-19T07:56:20.816Z,2.69
2023-02-19T07:58:49.024Z,2.78
2023-02-19T08:01:42.083Z,2.77
2023-02-19T08:04:10.720Z,2.75
2023-02-19T08:06:38.825Z,2.87
2023-02-19T08:09:07.682Z,3.01
2023-02-19T08:11:53.110Z,2.94
2023-02-19T08:14:21.122Z,2.82
2023-02-19T08:16:51.516Z,2.86
2023-02-19T08:19:20.624Z,2.96
2023-02-19T08:21:48.691Z,2.96
2023-02-19T08:24:16.603Z,3.03
2023-02-19T08:26:44.570Z,3.01
2023-02-19T08:29:12.500Z,3.05
2023-02-19T08:31:40.734Z,2.97
2023-02-19T08:34:10.052Z,3.05
2023-02-19T08:36:39.061Z,3.14
2023-02-19T08:39:07.203Z,3.17
2023-02-19T08:41:35.118Z,3.23
2023-02-19T08:44:03.070Z,3.48
2023-02-19T08:46:32.503Z,3.53
2023-02-19T08:49:01.990Z,3.64
2023-02-19T08:51:31.434Z,3.80
2023-02-19T08:53:59.539Z,3.75
2023-02-19T08:56:27.490Z,3.67
2023-02-19T08:58:55.502Z,3.94
2023-02-19T09:01:23.951Z,3.93
2023-02-19T09:03:51.870Z,3.96
2023-02-19T09:06:22.047Z,3.92
2023-02-19T09:08:51.394Z,4.09
2023-02-19T09:11:19.317Z,4.25
2023-02-19T09:13:47.378Z,4.44
2023-02-19T09:16:15.337Z,4.36
2023-02-19T09:18:45.753Z,4.48
2023-02-19T09:21:14.223Z,4.48
2023-02-19T09:23:42.279Z,4.31
2023-02-19T09:26:13.994Z,4.22
2023-02-19T09:28:43.108Z,4.42
2023-02-19T09:31:15.012Z,4.47
2023-02-19T09:33:45.004Z,4.65
2023-02-19T09:36:14.357Z,4.38
2023-02-19T09:38:43.339Z,4.34
2023-02-19T09:41:23.484Z,4.54
2023-02-19T09:43:52.239Z,4.75
2023-02-19T09:46:31.698Z,4.58
2023-02-19T09:49:08.177Z,4.71
2023-02-19T09:51:40.719Z,5.07
2023-02-19T09:54:21.876Z,4.90
2023-02-19T09:56:52.006Z,4.93
2023-02-19T09:59:24.710Z,5.07
2023-02-19T10:02:03.898Z,4.70
2023-02-19T10:04:43.937Z,4.78
2023-02-19T10:07:15.217Z,5.12
2023-02-19T10:09:46.349Z,5.13
2023-02-19T10:12:24.232Z,5.35
2023-02-19T10:14:59.120Z,5.37
2023-02-19T10:17:31.802Z,5.37
2023-02-19T10:19:59.864Z,5.46
2023-02-19T10:22:28.584Z,5.02
2023-02-19T10:24:57.822Z,5.05
2023-02-19T10:27:31.241Z,5.05
2023-02-19T10:30:01.616Z,5.03
2023-02-19T10:32:29.770Z,5.33
2023-02-19T10:35:12.862Z,5.50
2023-02-19T10:37:48.403Z,5.66
2023-02-19T10:40:20.190Z,5.65
2023-02-19T10:42:54.043Z,5.92
2023-02-19T10:45:26.759Z,5.95
2023-02-19T10:47:54.926Z,6.04
2023-02-19T10:50:30.857Z,5.26
2023-02-19T10:53:01.940Z,5.21
2023-02-19T10:55:36.763Z,5.14
2023-02-19T10:58:26.518Z,5.63
2023-02-19T11:01:19.780Z,5.82
2023-02-19T11:03:50.099Z,5.92
2023-02-19T11:06:22.012Z,6.13
2023-02-19T11:09:02.076Z,6.21
2023-02-19T11:11:35.584Z,6.07
2023-02-19T11:14:16.213Z,5.96
2023-02-19T11:16:48.958Z,5.77
2023-02-19T11:19:34.837Z,5.72
2023-02-19T11:22:04.138Z,5.69
2023-02-19T11:24:37.495Z,5.57
2023-02-19T11:27:17.736Z,5.64
2023-02-19T11:29:47.235Z,5.68
2023-02-19T11:32:30.778Z,5.82
2023-02-19T11:35:22.654Z,5.57
2023-02-19T11:37:59.476Z,5.43
2023-02-19T11:40:45.649Z,5.53
2023-02-19T11:43:49.053Z,5.45
2023-02-19T11:46:36.019Z,5.35
2023-02-19T11:49:20.240Z,5.36
2023-02-19T11:52:06.186Z,5.57
2023-02-19T11:54:51.115Z,5.39
2023-02-19T11:57:41.523Z,5.33
2023-02-19T12:00:30.095Z,5.45
2023-02-19T12:03:50.032Z,5.54
2023-02-19T12:06:33.644Z,5.43
2023-02-19T12:09:29.149Z,5.55
2023-02-19T12:12:37.869Z,5.47
2023-02-19T12:15:29.848Z,5.34
2023-02-19T12:18:33.310Z,5.44
2023-02-19T12:21:22.223Z,5.42
2023-02-19T12:24:16.632Z,5.47
2023-02-19T12:27:00.268Z,5.37
2023-02-19T12:30:06.943Z,5.26
2023-02-19T12:32:54.208Z,5.42
2023-02-19T12:35:53.045Z,5.65
2023-02-19T12:38:35.078Z,5.89
2023-02-19T12:41:21.796Z,5.95
2023-02-19T12:43:59.846Z,6.16
2023-02-19T12:46:34.187Z,6.10
2023-02-19T12:49:13.105Z,5.99
2023-02-19T12:51:48.714Z,6.43
2023-02-19T12:54:24.752Z,6.36
2023-02-19T12:57:02.072Z,6.19
2023-02-19T12:59:37.595Z,6.11
2023-02-19T13:02:18.644Z,6.21
2023-02-19T13:05:01.118Z,6.32
2023-02-19T13:07:38.528Z,6.15
2023-02-19T13:10:23.720Z,6.05
2023-02-19T13:12:54.228Z,6.06
2023-02-19T13:15:35.715Z,6.11
2023-02-19T13:18:12.096Z,6.05
2023-02-19T13:20:44.709Z,6.27
2023-02-19T13:23:40.672Z,6.65
2023-02-19T13:26:32.818Z,6.98
2023-02-19T13:29:23.534Z,7.15
2023-02-19T13:32:20.779Z,7.28
2023-02-19T13:35:25.816Z,7.15
2023-02-19T13:37:56.946Z,6.98
2023-02-19T13:40:36.186Z,6.67
2023-02-19T13:43:08.428Z,6.58
2023-02-19T13:45:43.280Z,6.46
2023-02-19T13:48:27.545Z,6.15
2023-02-19T13:51:49.507Z,6.15
2023-02-19T13:54:29.977Z,6.13
2023-02-19T13:57:33.548Z,6.06
2023-02-19T14:00:02.162Z,6.05
2023-02-19T14:02:35.164Z,6.09
2023-02-19T14:05:08.167Z,6.21
2023-02-19T14:07:56.018Z,6.21
2023-02-19T14:11:04.844Z,5.96
2023-02-19T14:14:01.543Z,6.12
2023-02-19T14:16:51.306Z,6.36
2023-02-19T14:19:54.944Z,6.23
2023-02-19T14:23:09.602Z,6.28
2023-02-19T14:26:01.159Z,6.44
2023-02-19T14:28:39.021Z,6.61
2023-02-19T14:31:25.298Z,6.50
2023-02-19T14:33:56.124Z,6.32
2023-02-19T14:36:36.477Z,6.06
2023-02-19T14:39:13.989Z,6.00
2023-02-19T14:41:46.993Z,5.96
2023-02-19T14:44:21.150Z,5.90
2023-02-19T14:46:59.816Z,5.92
2023-02-19T14:49:35.290Z,5.86
2023-02-19T14:52:11.161Z,5.75
2023-02-19T14:54:46.279Z,5.85
2023-02-19T14:57:21.896Z,6.01
2023-02-19T14:59:56.814Z,6.00
2023-02-19T15:02:27.865Z,6.05
2023-02-19T15:04:56.620Z,6.11
2023-02-19T15:07:29.862Z,6.16
2023-02-19T15:10:05.575Z,6.01
2023-02-19T15:12:42.284Z,6.07
2023-02-19T15:15:18.271Z,5.94
2023-02-19T15:17:47.809Z,5.78
2023-02-19T15:20:22.850Z,5.83
2023-02-19T15:22:51.897Z,5.79
2023-02-19T15:25:23.411Z,5.77
2023-02-19T15:27:51.979Z,5.71
2023-02-19T15:30:24.130Z,5.76
2023-02-19T15:32:59.594Z,5.67
2023-02-19T15:35:29.861Z,5.63
2023-02-19T15:37:58.162Z,5.63
2023-02-19T15:40:32.475Z,5.60
2023-02-19T15:43:01.977Z,5.47
2023-02-19T15:45:39.621Z,5.43
2023-02-19T15:48:15.791Z,5.36
2023-02-19T15:50:51.757Z,5.38
2023-02-19T15:53:23.980Z,5.32
2023-02-19T15:56:01.205Z,5.27
2023-02-19T15:58:37.470Z,5.23
2023-02-19T16:01:13.691Z,5.25
2023-02-19T16:03:43.820Z,5.14
2023-02-19T16:06:15.829Z,5.17
2023-02-19T16:08:45.876Z,5.12
2023-02-19T16:11:36.691Z,5.07
2023-02-19T16:14:29.451Z,5.05
2023-02-19T16:17:14.337Z,4.97
2023-02-19T16:19:51.606Z,4.99
2023-02-19T16:22:24.277Z,4.92
2023-02-19T16:24:56.365Z,4.86
2023-02-19T16:27:32.299Z,4.79
2023-02-19T16:30:09.064Z,4.69
2023-02-19T16:32:37.074Z,4.64
2023-02-19T16:35:27.442Z,4.72
2023-02-19T16:38:00.430Z,4.52
2023-02-19T16:41:11.821Z,4.51
2023-02-19T16:43:43.937Z,4.47
2023-02-19T16:46:14.131Z,4.45
2023-02-19T16:48:42.373Z,4.41
2023-02-19T16:51:24.933Z,4.23
2023-02-19T16:53:52.995Z,4.19
2023-02-19T16:56:23.067Z,4.11
2023-02-19T16:58:51.107Z,4.15
2023-02-19T17:01:19.683Z,4.07
2023-02-19T17:03:48.258Z,4.05
2023-02-19T17:06:17.953Z,3.97
2023-02-19T17:08:46.158Z,3.97
2023-02-19T17:11:18.004Z,3.86
2023-02-19T17:13:47.879Z,3.82
2023-02-19T17:16:22.092Z,3.80
2023-02-19T17:18:50.281Z,3.75
2023-02-19T17:21:23.940Z,3.72
2023-02-19T17:23:53.860Z,3.67
2023-02-19T17:26:25.466Z,3.58
2023-02-19T17:28:53.537Z,3.51
2023-02-19T17:31:21.413Z,3.49
2023-02-19T17:33:50.009Z,3.45
2023-02-19T17:36:22.990Z,3.39
2023-02-19T17:38:50.892Z,3.36
2023-02-19T17:41:18.787Z,3.24
2023-02-19T17:43:47.517Z,3.24
2023-02-19T17:46:18.484Z,3.18
2023-02-19T17:48:46.541Z,3.20
2023-02-19T17:51:15.193Z,3.16
2023-02-19T17:53:46.440Z,3.17
2023-02-19T17:56:19.222Z,3.12
2023-02-19T17:58:47.370Z,3.09
2023-02-19T18:01:15.854Z,3.09
2023-02-19T18:03:43.958Z,3.01
2023-02-19T18:06:11.960Z,2.98
2023-02-19T18:08:42.028Z,2.97
2023-02-19T18:11:11.528Z,2.92
2023-02-19T18:13:39.365Z,2.86
2023-02-19T18:16:08.061Z,2.88
2023-02-19T18:18:35.930Z,2.94
2023-02-19T18:21:04.018Z,2.90
2023-02-19T18:23:31.901Z,2.91
2023-02-19T18:25:59.738Z,2.86
2023-02-19T18:28:29.025Z,2.86
2023-02-19T18:30:56.996Z,3.01
2023-02-19T18:33:24.970Z,2.92
2023-02-19T18:35:52.793Z,2.84
2023-02-19T18:38:21.542Z,2.87
2023-02-19T18:40:49.490Z,2.82
2023-02-19T18:43:17.518Z,2.83
2023-02-19T18:45:46.911Z,2.88
2023-02-19T18:48:14.930Z,2.83
2023-02-19T18:50:42.852Z,2.71
2023-02-19T18:57:22.312Z,2.64
2023-02-19T18:59:51.506Z,2.79
2023-02-19T19:02:21.276Z,2.69
2023-02-19T19:04:52.892Z,2.71
2023-02-19T19:07:22.550Z,2.72
2023-02-19T19:09:50.292Z,2.67
2023-02-19T19:12:18.587Z,2.66
2023-02-19T19:14:46.641Z,2.70
2023-02-19T19:17:14.705Z,2.56
2023-02-19T19:19:45.784Z,2.60
2023-02-19T19:22:15.058Z,2.57
2023-02-19T19:24:43.953Z,2.60
2023-02-19T19:27:11.876Z,2.54
2023-02-19T19:29:40.582Z,2.52
2023-02-19T19:32:08.963Z,2.57
2023-02-19T19:34:36.934Z,2.53
2023-02-19T19:37:06.644Z,2.59
2023-02-19T19:39:34.587Z,2.65
2023-02-19T19:42:02.518Z,2.66
2023-02-19T19:44:30.367Z,2.57
2023-02-19T19:46:58.307Z,2.66
2023-02-19T19:49:26.366Z,2.67
2023-02-19T19:51:54.266Z,2.65
2023-02-19T19:54:23.601Z,2.62
2023-02-19T19:56:51.545Z,2.75
2023-02-19T19:59:19.876Z,2.81
2023-02-19T20:01:53.556Z,2.67
2023-02-19T20:04:24.462Z,2.56
2023-02-19T20:06:52.639Z,2.58
2023-02-19T20:09:25.456Z,2.61
2023-02-19T20:11:54.507Z,2.61
2023-02-19T20:14:25.139Z,2.52
2023-02-19T20:16:54.207Z,2.47
2023-02-19T20:19:22.651Z,2.45
2023-02-19T20:21:54.200Z,2.43
2023-02-19T20:24:28.798Z,2.51
2023-02-19T20:26:59.395Z,2.47
2023-02-19T20:29:28.976Z,2.44
2023-02-19T20:31:59.826Z,2.43
2023-02-19T20:34:28.437Z,2.43
2023-02-19T20:36:56.862Z,2.41
2023-02-19T20:39:29.107Z,2.51
2023-02-19T20:41:59.114Z,2.43
2023-02-19T20:44:28.655Z,2.49
2023-02-19T20:46:57.483Z,2.55
2023-02-19T20:49:28.978Z,2.55
2023-02-19T20:51:59.738Z,2.71
2023-02-19T20:54:32.018Z,2.78
2023-02-19T20:57:02.547Z,2.76
2023-02-19T20:59:35.291Z,2.69
2023-02-19T21:02:05.205Z,2.71
2023-02-19T21:04:33.313Z,2.71
2023-02-19T21:07:01.256Z,2.66
2023-02-19T21:09:30.646Z,2.65
2023-02-19T21:11:59.950Z,2.63
2023-02-19T21:14:27.902Z,2.59
2023-02-19T21:16:55.940Z,2.56
2023-02-19T21:19:24.219Z,2.59
2023-02-19T21:21:52.361Z,2.54
2023-02-19T21:24:20.303Z,2.57
2023-02-19T21:26:49.730Z,2.56
2023-02-19T21:29:21.581Z,2.60
2023-02-19T21:31:52.356Z,2.55
2023-02-19T21:34:22.939Z,2.65
2023-02-19T21:36:50.907Z,2.63
2023-02-19T21:39:22.200Z,2.59
2023-02-19T21:41:51.599Z,2.62
2023-02-19T21:44:20.967Z,2.71
2023-02-19T21:46:49.005Z,2.80
2023-02-19T21:49:17.490Z,2.86
2023-02-19T21:51:48.530Z,2.85
2023-02-19T21:54:21.087Z,2.82
2023-02-19T21:56:49.575Z,2.85
2023-02-19T21:59:20.378Z,2.92
2023-02-19T22:01:48.328Z,2.84
2023-02-19T22:04:19.221Z,2.84
2023-02-19T22:06:47.721Z,2.82
2023-02-19T22:09:16.850Z,2.80
2023-02-19T22:11:44.759Z,2.79
2023-02-19T22:14:12.872Z,2.73
2023-02-19T22:16:42.204Z,2.70
2023-02-19T22:19:13.032Z,2.66
2023-02-19T22:21:45.200Z,2.63
2023-02-19T22:24:18.604Z,2.59
2023-02-19T22:26:46.912Z,2.65
2023-02-19T22:29:17.034Z,2.63
2023-02-19T22:31:46.496Z,2.56
2023-02-19T22:34:15.537Z,2.65
2023-02-19T22:36:44.729Z,2.56
2023-02-19T22:39:19.821Z,2.62
2023-02-19T22:41:48.398Z,2.64
2023-02-19T22:44:16.638Z,2.55
2023-02-19T22:46:52.340Z,2.55
2023-02-19T22:49:22.153Z,2.56
2023-02-19T22:51:56.016Z,2.55
2023-02-19T22:54:26.872Z,2.43
2023-02-19T22:56:55.222Z,2.47
2023-02-19T22:59:24.244Z,2.37
2023-02-19T23:01:54.302Z,2.39
2023-02-19T23:04:24.182Z,2.36
2023-02-19T23:06:52.892Z,2.43
2023-02-19T23:09:24.250Z,2.38
2023-02-19T23:11:53.473Z,2.46
2023-02-19T23:14:24.330Z,2.37
2023-02-19T23:16:53.740Z,2.39
2023-02-19T23:19:21.784Z,2.25
2023-02-19T23:21:50.295Z,2.37
2023-02-19T23:24:18.494Z,2.32
2023-02-19T23:26:48.981Z,2.28
2023-02-19T23:29:18.559Z,2.26
2023-02-19T23:31:46.524Z,2.27
2023-02-19T23:34:16.465Z,2.28
2023-02-19T23:36:47.709Z,2.27
2023-02-19T23:39:19.674Z,2.24
2023-02-19T23:41:49.774Z,2.23
2023-02-19T23:44:18.917Z,2.27
2023-02-19T23:46:46.969Z,2.31
2023-02-19T23:49:16.245Z,2.31
2023-02-19T23:51:44.904Z,2.25
2023-02-19T23:54:13.419Z,2.25
2023-02-19T23:56:41.315Z,2.29
2023-02-19T23:59:09.237Z,2.26
